KC5EZZ-4 Weather Reports


time (UTC)temp
F
wind
direction
speed
knots
gust
knots
rain 1hr
in
rain 24hr
in
rain mn
in
humidity
%
barometer
mb
20211017160128 61 190 0.9 2.6 0.00 0.00 0.00 59 1030.0
20211017155354 64 181 0.9 0.9 0.00 0.00 0.00
20211017154758 60 229 0.0 1.7 0.00 0.00 0.00 61 1030.1
20211017153210 61 231 0.0 0.0 0.00 0.00 0.00
20211017153121 60 229 0.0 2.6 0.00 0.00 0.00 62 1030.1
20211017152213 63 246 0.0 0.0 0.00 0.00 0.00
20211017151651 60 229 0.0 1.7 0.00 0.00 0.00 64 1030.1
20211017150114 58 229 0.9 2.6 0.00 0.00 0.00 70 1030.2
20211017145707 77 163 0.0 0.0 0.00 0.00 0.00
20211017145207 78 163 0.0 0.0 0.00 0.00 0.00
20211017144620 55 229 0.9 2.6 0.00 0.00 0.00 74 1030.0
20211017143130 54 229 0.9 2.6 0.00 0.00 0.00 75 1030.0
20211017141616 52 229 0.0 2.6 0.00 0.00 0.00 75 1029.9
20211017140049 52 219 0.0 0.9 0.00 0.00 0.00 79 1029.8
20211017135428 65 218 1.7 1.7 0.00 0.00 0.00
20211017134553 48 213 0.0 2.6 0.00 0.00 0.00 80 1029.6
20211017133101 45 213 0.0 0.9 0.00 0.00 0.00 81 1029.4
20211017132333 49 165 0.0 0.0 0.00 0.00 0.00
20211017131555 41 212 0.0 0.0 0.00 0.00 0.00 82 1029.4
20211017130954 43 198 0.9 0.9 0.00 0.00 0.00
20211017130031 40 213 0.0 0.0 0.00 0.00 0.00 82 1029.3
20211017124542 40 213 0.0 1.7 0.00 0.00 0.00 82 1029.3
20211017124331 38 195 0.9 1.7 0.00 0.00 0.00
20211017123025 40 213 0.0 0.0 0.00 0.00 0.00 82 1029.3
20211017121525 40 213 0.0 0.9 0.00 0.00 0.00 82 1029.3
20211017120107 40 213 0.0 1.7 0.00 0.00 0.00 82 1029.2
20211017114648 40 213 0.0 1.7 0.00 0.00 0.00 82 1029.2
20211017113120 40 213 0.0 1.7 0.00 0.00 0.00 82 1029.0
20211017111606 40 213 0.0 0.0 0.00 0.00 0.00 82 1029.1
20211017110207 41 213 0.0 0.0 0.00 0.00 0.00 82 1029.1
20211017104707 41 213 0.0 0.0 0.00 0.00 0.00 81 1029.1
20211017103122 41 213 0.0 0.0 0.00 0.00 0.00 81 1029.1
20211017101549 42 213 0.0 0.0 0.00 0.00 0.00 81 1029.1
20211017100101 42 213 0.0 1.7 0.00 0.00 0.00 81 1029.1
20211017094600 42 213 0.0 1.7 0.00 0.00 0.00 81 1029.0
20211017093029 42 213 0.0 0.0 0.00 0.00 0.00 81 1029.1
20211017091555 43 213 0.0 0.0 0.00 0.00 0.00 81 1029.0
20211017090042 43 213 0.0 0.0 0.00 0.00 0.00 81 1029.1
20211017084535 43 213 0.0 0.0 0.00 0.00 0.00 81 1029.1
20211017083055 43 213 0.0 0.0 0.00 0.00 0.00 81 1029.1
20211017081536 44 213 0.0 0.0 0.00 0.00 0.00 80 1029.2
20211017080024 44 213 0.0 0.0 0.00 0.00 0.00 80 1029.3
20211017074519 43 213 0.0 0.0 0.00 0.00 0.00 80 1029.3
20211017073023 44 213 0.0 0.0 0.00 0.00 0.00 80 1029.5
20211017071501 44 213 0.0 0.0 0.00 0.00 0.00 80 1029.4
20211017070125 45 213 0.0 0.0 0.00 0.00 0.00 80 1029.2
20211017064735 45 213 0.0 0.0 0.00 0.00 0.00 80 1029.2
20211017063141 45 213 0.0 0.0 0.00 0.00 0.00 80 1029.2
20211017061623 45 213 0.0 0.0 0.00 0.00 0.00 79 1029.2
20211017060203 45 213 0.9 2.6 0.00 0.00 0.00 79 1029.5
20211017054620 45 211 0.0 1.7 0.00 0.00 0.00 78 1029.5
20211017053114 45 210 0.0 0.0 0.00 0.00 0.00 79 1029.5
20211017051617 46 182 0.0 0.0 0.00 0.00 0.00 78 1029.4
20211017050109 46 182 0.0 0.0 0.00 0.00 0.00 78 1029.5
20211017044616 47 182 0.0 0.0 0.00 0.00 0.00 77 1029.5
20211017043122 47 182 0.0 0.0 0.00 0.00 0.00 76 1029.4
20211017041538 47 182 0.0 0.0 0.00 0.00 0.00 76 1029.4
20211017040047 48 182 0.0 0.0 0.00 0.00 0.00 75 1029.3
20211017034612 48 180 0.0 0.0 0.00 0.00 0.00 75 1029.3
20211017033058 48 180 0.0 0.9 0.00 0.00 0.00 72 1029.4
20211017031513 50 161 0.0 0.0 0.00 0.00 0.00 69 1029.3
20211017030016 52 161 0.0 0.0 0.00 0.00 0.00 66 1029.1
20211017024504 54 107 0.0 0.0 0.00 0.00 0.00 62 1028.9
20211017023019 54 107 0.0 0.0 0.00 0.00 0.00 64 1028.7
20211017021659 55 107 0.0 0.0 0.00 0.00 0.00 62 1028.6
20211017020147 56 107 0.0 0.0 0.00 0.00 0.00 59 1028.6
20211017014642 57 107 0.0 0.0 0.00 0.00 0.00 57 1028.5
20211017013316 58 107 0.0 0.0 0.00 0.00 0.00 53 1028.5
20211017011621 59 107 0.0 2.6 0.00 0.00 0.00 49 1028.3
20211017010207 60 107 0.9 2.6 0.00 0.00 0.00 46 1028.2
20211017004553 61 107 0.0 1.7 0.00 0.00 0.00 47 1028.1
20211017003044 62 107 0.9 2.6 0.00 0.00 0.00 43 1028.1
20211017001606 63 107 0.0 1.7 0.00 0.00 0.00 41 1028.1
20211017000040 64 108 0.0 0.9 0.00 0.00 0.00 38 1028.1
20211016234526 66 79 2.6 5.2 0.00 0.00 0.00 33 1028.3
20211016233023 67 97 0.9 3.5 0.00 0.00 0.00 30 1028.3
20211016231505 68 102 3.5 10.4 0.00 0.00 0.00 29 1028.3
20211016230132 68 103 3.5 7.8 0.00 0.00 0.00 29 1028.3
20211016224643 69 78 4.3 6.1 0.00 0.00 0.00 28 1028.2
20211016223154 68 28 4.3 9.6 0.00 0.00 0.00 29 1028.2
20211016221657 68 82 1.7 7.0 0.00 0.00 0.00 29 1028.3
20211016220133 69 93 6.1 12.2 0.00 0.00 0.00 29 1028.5
20211016214703 69 355 4.3 8.7 0.00 0.00 0.00 28 1028.5
20211016213149 68 84 4.3 7.8 0.00 0.00 0.00 27 1028.8
20211016211619 69 133 5.2 9.6 0.00 0.00 0.00 27 1028.6
20211016210142 68 106 3.5 8.7 0.00 0.00 0.00 28 1028.9
20211016204548 68 12 4.3 7.8 0.00 0.00 0.00 29 1029.0
20211016203058 68 120 3.5 8.7 0.00 0.00 0.00 27 1029.1
20211016201609 68 51 3.5 9.6 0.00 0.00 0.00 28 1029.3
20211016200043 67 128 0.0 4.3 0.00 0.00 0.00 27 1029.6
20211016194540 68 29 4.3 13.0 0.00 0.00 0.00 29 1029.9
20211016193114 67 70 5.2 9.6 0.00 0.00 0.00 30 1030.0
20211016191614 67 86 2.6 7.8 0.00 0.00 0.00 29 1030.2
20211016190057 67 101 6.1 10.4 0.00 0.00 0.00 28 1030.5
20211016184524 67 56 3.5 7.8 0.00 0.00 0.00 36 1030.8
20211016183011 65 182 2.6 7.8 0.00 0.00 0.00 38 1031.2
20211016181515 66 27 2.6 7.8 0.00 0.00 0.00 38 1031.5
20211016180028 65 124 4.3 8.7 0.00 0.00 0.00 38 1031.9
20211016174507 65 15 2.6 7.8 0.00 0.00 0.00 37 1032.1
20211016173013 65 55 5.2 12.2 0.00 0.00 0.00 34 1032.2
20211016171505 66 19 4.3 10.4 0.00 0.00 0.00 36 1032.2
20211016170011 66 349 0.0 2.6 0.00 0.00 0.00 43 1032.4
20211016164619 64 229 0.0 4.3 0.00 0.00 0.00 47 1032.6
20211016163142 65 19 2.6 3.5 0.00 0.00 0.00 46 1032.6
20211016161552 64 257 0.0 2.6 0.00 0.00 0.00 54 1032.6